QFA34 YPPH-YSSY
Flight info
| Callsign | QFA34 |
|---|---|
| Flight time | N/A |
| Altitude | 41000 |
| Route | PH H18 MUBID J21 BORLI H205 CULIN Y59 RIVET |
| Aircraft | B789/H-SDE1E2E3FGHIJ2J3J4J5M1RWXY/LB1D1 |
Departure
| Time | 2026-05-05 21:50 |
|---|---|
| Airport | Perth International Airport (YPPH) |
Arrival
| Time | N/A |
|---|---|
| Airport | Sydney Kingsford Smith International Airport (YSSY) |
| Time | Latitude | Longitude | Altitude | Speed | Heading |
|---|---|---|---|---|---|
| 2026-05-05 21:21 | -31.93587 | 115.96115 | 65 ft | 0 kts | 300° |
| 2026-05-05 21:22 | -31.93586 | 115.96115 | 73 ft | 0 kts | 300° |
| 2026-05-05 21:40 | -31.93597 | 115.96134 | 73 ft | 4 kts | 313° |
| 2026-05-05 21:40 | -31.93615 | 115.96155 | 63 ft | 4 kts | 298° |
| 2026-05-05 21:40 | -31.93617 | 115.96178 | 63 ft | 4 kts | 243° |
| 2026-05-05 21:41 | -31.93599 | 115.96197 | 64 ft | 4 kts | 194° |
| 2026-05-05 21:41 | -31.93573 | 115.96202 | 73 ft | 4 kts | 189° |
| 2026-05-05 21:41 | -31.93563 | 115.96204 | 73 ft | 0 kts | 194° |
| 2026-05-05 21:44 | -31.93572 | 115.96202 | 63 ft | 2 kts | 194° |
| 2026-05-05 21:45 | -31.93592 | 115.96196 | 73 ft | 4 kts | 194° |
| 2026-05-05 21:45 | -31.93623 | 115.96186 | 73 ft | 5 kts | 194° |
| 2026-05-05 21:45 | -31.93664 | 115.96178 | 68 ft | 6 kts | 182° |
| 2026-05-05 21:45 | -31.93712 | 115.96183 | 63 ft | 8 kts | 173° |
| 2026-05-05 21:46 | -31.93764 | 115.96174 | 66 ft | 7 kts | 209° |
| 2026-05-05 21:46 | -31.93797 | 115.96130 | 68 ft | 8 kts | 236° |
| 2026-05-05 21:46 | -31.93829 | 115.96071 | 70 ft | 9 kts | 238° |
| 2026-05-05 21:46 | -31.93865 | 115.96000 | 65 ft | 11 kts | 239° |
| 2026-05-05 21:47 | -31.93906 | 115.95919 | 65 ft | 12 kts | 238° |
| 2026-05-05 21:47 | -31.93946 | 115.95867 | 64 ft | 7 kts | 205° |
| 2026-05-05 21:47 | -31.93977 | 115.95863 | 68 ft | 0 kts | 170° |
| 2026-05-05 21:48 | -31.93980 | 115.95864 | 73 ft | 2 kts | 169° |
| 2026-05-05 21:49 | -31.94000 | 115.95872 | 63 ft | 5 kts | 157° |
| 2026-05-05 21:49 | -31.94048 | 115.95901 | 65 ft | 9 kts | 150° |
| 2026-05-05 21:49 | -31.94077 | 115.95949 | 67 ft | 3 kts | 95° |
| 2026-05-05 21:49 | -31.94067 | 115.95976 | 64 ft | 9 kts | 64° |
| 2026-05-05 21:50 | -31.93980 | 115.96153 | 68 ft | 50 kts | 58° |
| 2026-05-05 21:50 | -31.93659 | 115.96775 | 66 ft | 126 kts | 59° |
| 2026-05-05 21:50 | -31.93089 | 115.97870 | 261 ft | 174 kts | 52° |
| 2026-05-05 21:50 | -31.92420 | 115.98972 | 1471 ft | 162 kts | 56° |
| 2026-05-05 21:51 | -31.91805 | 116.00100 | 2437 ft | 173 kts | 63° |
| 2026-05-05 21:51 | -31.91212 | 116.01474 | 2923 ft | 204 kts | 64° |
| 2026-05-05 21:51 | -31.90469 | 116.03060 | 3439 ft | 238 kts | 60° |
| 2026-05-05 21:51 | -31.89580 | 116.04788 | 4385 ft | 248 kts | 59° |
| 2026-05-05 21:52 | -31.87690 | 116.08454 | 6447 ft | 271 kts | 61° |
| 2026-05-05 21:52 | -31.86717 | 116.10362 | 7591 ft | 275 kts | 62° |
| 2026-05-05 21:52 | -31.85742 | 116.12328 | 8659 ft | 279 kts | 67° |
| 2026-05-05 21:53 | -31.85291 | 116.14544 | 9627 ft | 283 kts | 84° |
| 2026-05-05 21:53 | -31.84856 | 116.16851 | 10025 ft | 299 kts | 77° |
| 2026-05-05 21:53 | -31.84285 | 116.19334 | 10037 ft | 333 kts | 78° |
| 2026-05-05 21:53 | -31.83723 | 116.22117 | 10047 ft | 361 kts | 79° |
| 2026-05-05 21:54 | -31.83188 | 116.25027 | 10051 ft | 368 kts | 79° |
| 2026-05-05 21:54 | -31.82627 | 116.27981 | 10070 ft | 371 kts | 78° |
| 2026-05-05 21:54 | -31.82036 | 116.30955 | 10678 ft | 372 kts | 78° |
| 2026-05-05 21:54 | -31.81447 | 116.33928 | 11722 ft | 376 kts | 79° |
| 2026-05-05 21:55 | -31.80861 | 116.36957 | 12626 ft | 382 kts | 79° |
| 2026-05-05 21:55 | -31.80263 | 116.40039 | 13566 ft | 388 kts | 79° |
| 2026-05-05 21:55 | -31.79652 | 116.43151 | 14458 ft | 394 kts | 79° |
| 2026-05-05 21:55 | -31.79037 | 116.46280 | 15238 ft | 400 kts | 79° |
| 2026-05-05 21:56 | -31.78399 | 116.49527 | 16021 ft | 406 kts | 79° |
| 2026-05-05 21:56 | -31.77777 | 116.52787 | 16755 ft | 411 kts | 82° |
| 2026-05-05 21:56 | -31.77682 | 116.56094 | 17441 ft | 413 kts | 97° |
| 2026-05-05 21:56 | -31.78101 | 116.59442 | 18156 ft | 417 kts | 103° |
| 2026-05-05 21:57 | -31.78679 | 116.62804 | 18833 ft | 422 kts | 103° |
| 2026-05-05 21:57 | -31.79174 | 116.66267 | 19463 ft | 428 kts | 99° |
| 2026-05-05 21:57 | -31.79444 | 116.69767 | 20066 ft | 433 kts | 96° |
| 2026-05-05 21:57 | -31.79704 | 116.73269 | 20670 ft | 437 kts | 98° |
| 2026-05-05 21:58 | -31.80079 | 116.76837 | 21248 ft | 441 kts | 99° |
| 2026-05-05 21:58 | -31.80480 | 116.80429 | 21798 ft | 446 kts | 99° |
| 2026-05-05 21:58 | -31.80832 | 116.84072 | 22356 ft | 450 kts | 98° |
| 2026-05-05 21:58 | -31.81166 | 116.87754 | 22890 ft | 454 kts | 98° |
| 2026-05-05 21:59 | -31.81525 | 116.91464 | 23379 ft | 459 kts | 98° |
| 2026-05-05 21:59 | -31.81901 | 116.95207 | 23890 ft | 463 kts | 98° |
| 2026-05-05 21:59 | -31.82270 | 116.98989 | 24316 ft | 467 kts | 98° |
| 2026-05-05 21:59 | -31.82630 | 117.02795 | 24768 ft | 469 kts | 98° |
| 2026-05-05 22:00 | -31.82994 | 117.06615 | 25181 ft | 472 kts | 98° |
| 2026-05-05 22:00 | -31.83362 | 117.10416 | 25585 ft | 474 kts | 98° |
| 2026-05-05 22:00 | -31.83733 | 117.14279 | 25978 ft | 477 kts | 98° |
| 2026-05-05 22:00 | -31.84101 | 117.18165 | 26391 ft | 479 kts | 98° |
| 2026-05-05 22:01 | -31.84469 | 117.22065 | 26753 ft | 482 kts | 98° |
| 2026-05-05 22:01 | -31.84841 | 117.25986 | 27142 ft | 484 kts | 98° |
| 2026-05-05 22:01 | -31.85214 | 117.29936 | 27514 ft | 486 kts | 98° |
| 2026-05-05 22:01 | -31.85587 | 117.33910 | 27865 ft | 488 kts | 98° |
| 2026-05-05 22:02 | -31.85959 | 117.37892 | 28214 ft | 491 kts | 98° |
| 2026-05-05 22:02 | -31.86331 | 117.41888 | 28569 ft | 492 kts | 98° |
| 2026-05-05 22:02 | -31.86705 | 117.45902 | 28912 ft | 494 kts | 97° |
| 2026-05-05 22:02 | -31.87073 | 117.49879 | 29219 ft | 496 kts | 97° |
| 2026-05-05 22:03 | -31.87446 | 117.53925 | 29529 ft | 498 kts | 97° |
| 2026-05-05 22:03 | -31.87820 | 117.57984 | 29829 ft | 500 kts | 97° |
| 2026-05-05 22:03 | -31.88193 | 117.62060 | 30112 ft | 502 kts | 97° |
| 2026-05-05 22:03 | -31.88568 | 117.66164 | 30385 ft | 504 kts | 97° |
| 2026-05-05 22:04 | -31.88943 | 117.70279 | 30626 ft | 506 kts | 97° |
| 2026-05-05 22:04 | -31.89316 | 117.74403 | 30883 ft | 507 kts | 97° |
| 2026-05-05 22:04 | -31.89688 | 117.78525 | 31204 ft | 506 kts | 97° |
| 2026-05-05 22:04 | -31.90059 | 117.82647 | 31504 ft | 506 kts | 97° |
| 2026-05-05 22:05 | -31.90429 | 117.86770 | 31799 ft | 506 kts | 97° |
| 2026-05-05 22:05 | -31.90795 | 117.90861 | 32112 ft | 505 kts | 97° |
| 2026-05-05 22:05 | -31.91161 | 117.94975 | 32411 ft | 505 kts | 97° |
| 2026-05-05 22:05 | -31.91526 | 117.99089 | 32714 ft | 505 kts | 97° |
| 2026-05-05 22:06 | -31.91889 | 118.03201 | 33017 ft | 504 kts | 97° |
| 2026-05-05 22:06 | -31.92250 | 118.07296 | 33318 ft | 504 kts | 97° |
| 2026-05-05 22:06 | -31.92609 | 118.11398 | 33582 ft | 505 kts | 97° |
| 2026-05-05 22:06 | -31.92969 | 118.15511 | 33881 ft | 505 kts | 97° |
| 2026-05-05 22:07 | -31.93326 | 118.19624 | 34285 ft | 502 kts | 97° |
| 2026-05-05 22:07 | -31.93676 | 118.23660 | 34569 ft | 501 kts | 97° |
| 2026-05-05 22:07 | -31.94032 | 118.27777 | 34816 ft | 501 kts | 97° |
| 2026-05-05 22:07 | -31.94384 | 118.31865 | 35059 ft | 501 kts | 97° |
| 2026-05-05 22:08 | -31.94734 | 118.35947 | 35301 ft | 501 kts | 97° |
| 2026-05-05 22:08 | -31.95078 | 118.39977 | 35531 ft | 501 kts | 97° |
| 2026-05-05 22:08 | -31.95426 | 118.44068 | 35753 ft | 502 kts | 97° |
| 2026-05-05 22:08 | -31.95773 | 118.48160 | 35982 ft | 502 kts | 97° |
| 2026-05-05 22:09 | -31.96119 | 118.52257 | 36234 ft | 502 kts | 97° |
| 2026-05-05 22:09 | -31.96462 | 118.56342 | 36465 ft | 502 kts | 97° |
| 2026-05-05 22:09 | -31.96805 | 118.60433 | 36694 ft | 501 kts | 97° |
| 2026-05-05 22:09 | -31.97146 | 118.64519 | 36923 ft | 501 kts | 97° |
| 2026-05-05 22:10 | -31.97487 | 118.68620 | 37148 ft | 501 kts | 97° |
| 2026-05-05 22:10 | -31.97826 | 118.72714 | 37338 ft | 502 kts | 97° |
| 2026-05-05 22:10 | -31.98164 | 118.76809 | 37566 ft | 502 kts | 97° |
| 2026-05-05 22:10 | -31.98500 | 118.80901 | 37788 ft | 502 kts | 97° |
| 2026-05-05 22:11 | -31.98835 | 118.85000 | 38008 ft | 502 kts | 97° |
| 2026-05-05 22:11 | -31.99165 | 118.89042 | 38234 ft | 502 kts | 97° |
| 2026-05-05 22:11 | -31.99496 | 118.93122 | 38524 ft | 500 kts | 97° |
| 2026-05-05 22:11 | -31.99826 | 118.97203 | 38744 ft | 500 kts | 97° |
| 2026-05-05 22:12 | -32.00155 | 119.01285 | 38954 ft | 500 kts | 97° |
| 2026-05-05 22:12 | -32.00482 | 119.05370 | 39143 ft | 500 kts | 97° |
| 2026-05-05 22:12 | -32.00808 | 119.09448 | 39295 ft | 500 kts | 97° |
| 2026-05-05 22:12 | -32.01132 | 119.13527 | 39439 ft | 501 kts | 97° |
| 2026-05-05 22:13 | -32.01457 | 119.17625 | 39582 ft | 501 kts | 97° |
| 2026-05-05 22:13 | -32.01780 | 119.21717 | 39725 ft | 501 kts | 97° |
| 2026-05-05 22:13 | -32.02099 | 119.25780 | 39867 ft | 502 kts | 97° |
| 2026-05-05 22:13 | -32.02419 | 119.29879 | 39982 ft | 503 kts | 97° |
| 2026-05-05 22:14 | -32.02739 | 119.33984 | 40115 ft | 503 kts | 97° |
| 2026-05-05 22:14 | -32.03058 | 119.38090 | 40253 ft | 503 kts | 97° |
| 2026-05-05 22:14 | -32.03375 | 119.42202 | 40385 ft | 504 kts | 97° |
| 2026-05-05 22:14 | -32.03693 | 119.46324 | 40522 ft | 504 kts | 97° |
| 2026-05-05 22:15 | -32.03902 | 119.49065 | 40618 ft | 505 kts | 97° |
| 2026-05-05 22:15 | -32.04216 | 119.53169 | 40746 ft | 505 kts | 97° |
| 2026-05-05 22:15 | -32.04529 | 119.57289 | 40877 ft | 506 kts | 97° |
| 2026-05-05 22:15 | -32.04843 | 119.61425 | 40992 ft | 506 kts | 97° |
| 2026-05-05 22:16 | -32.05254 | 119.66890 | 41251 ft | 505 kts | 97° |
| 2026-05-05 22:16 | -32.05768 | 119.73760 | 41452 ft | 506 kts | 97° |
| 2026-05-05 22:17 | -32.06385 | 119.82064 | 41456 ft | 509 kts | 97° |
| 2026-05-05 22:17 | -32.06994 | 119.90353 | 41467 ft | 507 kts | 97° |
| 2026-05-05 22:18 | -32.07599 | 119.98638 | 41459 ft | 507 kts | 97° |
| 2026-05-05 22:18 | -32.08198 | 120.06929 | 41467 ft | 507 kts | 97° |
| 2026-05-05 22:19 | -32.08792 | 120.15224 | 41465 ft | 508 kts | 97° |
| 2026-05-05 22:19 | -32.09376 | 120.23472 | 41468 ft | 508 kts | 97° |
| 2026-05-05 22:20 | -32.09960 | 120.31776 | 41471 ft | 508 kts | 97° |
| 2026-05-05 22:20 | -32.10540 | 120.40097 | 41472 ft | 509 kts | 97° |
| 2026-05-05 22:21 | -32.11113 | 120.48413 | 41468 ft | 508 kts | 97° |
| 2026-05-05 22:21 | -32.11680 | 120.56721 | 41466 ft | 507 kts | 97° |
| 2026-05-05 22:22 | -32.12241 | 120.65022 | 41468 ft | 507 kts | 97° |
| 2026-05-05 22:22 | -32.12796 | 120.73306 | 41473 ft | 506 kts | 97° |
| 2026-05-05 22:23 | -32.13342 | 120.81532 | 41470 ft | 505 kts | 96° |
| 2026-05-05 22:23 | -32.13885 | 120.89799 | 41470 ft | 505 kts | 96° |
| 2026-05-05 22:24 | -32.14423 | 120.98079 | 41470 ft | 506 kts | 96° |
| 2026-05-05 22:24 | -32.14954 | 121.06343 | 41485 ft | 504 kts | 96° |
| 2026-05-05 22:25 | -32.15479 | 121.14579 | 41482 ft | 503 kts | 96° |
| 2026-05-05 22:25 | -32.15998 | 121.22814 | 41483 ft | 503 kts | 96° |
| 2026-05-05 22:26 | -32.16510 | 121.31022 | 41480 ft | 505 kts | 96° |
| 2026-05-05 22:26 | -32.17022 | 121.39311 | 41479 ft | 507 kts | 96° |
| 2026-05-05 22:27 | -32.17529 | 121.47616 | 41470 ft | 507 kts | 96° |
| 2026-05-05 22:27 | -32.18030 | 121.55911 | 41475 ft | 506 kts | 96° |
| 2026-05-05 22:28 | -32.18525 | 121.64195 | 41481 ft | 506 kts | 96° |
| 2026-05-05 22:28 | -32.19011 | 121.72434 | 41485 ft | 507 kts | 96° |
| 2026-05-05 22:29 | -32.19476 | 121.80738 | 41478 ft | 505 kts | 92° |
| 2026-05-05 22:29 | -32.19742 | 121.89015 | 41475 ft | 506 kts | 95° |
| 2026-05-05 22:30 | -32.20022 | 121.97337 | 41475 ft | 508 kts | 94° |
| 2026-05-05 22:30 | -32.20271 | 122.05654 | 41482 ft | 506 kts | 94° |
| 2026-05-05 22:31 | -32.20538 | 122.13957 | 41478 ft | 506 kts | 94° |
| 2026-05-05 22:31 | -32.20780 | 122.22251 | 41472 ft | 505 kts | 94° |
| 2026-05-05 22:32 | -32.21030 | 122.30525 | 41471 ft | 504 kts | 94° |
| 2026-05-05 22:32 | -32.21266 | 122.38794 | 41467 ft | 505 kts | 94° |
| 2026-05-05 22:33 | -32.21503 | 122.47119 | 41473 ft | 508 kts | 94° |
| 2026-05-05 22:33 | -32.21729 | 122.55375 | 41475 ft | 504 kts | 94° |
| 2026-05-05 22:34 | -32.21953 | 122.63632 | 41473 ft | 503 kts | 94° |
| 2026-05-05 22:34 | -32.22170 | 122.71918 | 41475 ft | 506 kts | 94° |
| 2026-05-05 22:35 | -32.22383 | 122.80246 | 41471 ft | 507 kts | 94° |
| 2026-05-05 22:35 | -32.22591 | 122.88570 | 41470 ft | 507 kts | 94° |
| 2026-05-05 22:36 | -32.22794 | 122.96906 | 41469 ft | 508 kts | 94° |
| 2026-05-05 22:36 | -32.22990 | 123.05199 | 41471 ft | 509 kts | 94° |
| 2026-05-05 22:37 | -32.23182 | 123.13564 | 41468 ft | 509 kts | 93° |
| 2026-05-05 22:37 | -32.23369 | 123.21907 | 41467 ft | 508 kts | 93° |
| 2026-05-05 22:38 | -32.23549 | 123.30227 | 41465 ft | 505 kts | 93° |
| 2026-05-05 22:38 | -32.23724 | 123.38521 | 41455 ft | 505 kts | 93° |
| 2026-05-05 22:39 | -32.23893 | 123.46821 | 41455 ft | 506 kts | 93° |
| 2026-05-05 22:39 | -32.24056 | 123.55105 | 41459 ft | 508 kts | 93° |
| 2026-05-05 22:40 | -32.24215 | 123.63454 | 41461 ft | 509 kts | 93° |
| 2026-05-05 22:40 | -32.24370 | 123.71853 | 41461 ft | 508 kts | 93° |
| 2026-05-05 22:41 | -32.24517 | 123.80133 | 41458 ft | 506 kts | 93° |
| 2026-05-05 22:41 | -32.24659 | 123.88445 | 41454 ft | 505 kts | 93° |
| 2026-05-05 22:42 | -32.24795 | 123.96732 | 41460 ft | 503 kts | 93° |
| 2026-05-05 22:42 | -32.24926 | 124.05020 | 41457 ft | 506 kts | 93° |
| 2026-05-05 22:43 | -32.25052 | 124.13349 | 41461 ft | 508 kts | 93° |
| 2026-05-05 22:43 | -32.25172 | 124.21692 | 41463 ft | 507 kts | 92° |
| 2026-05-05 22:44 | -32.25287 | 124.29980 | 41457 ft | 507 kts | 92° |
| 2026-05-05 22:44 | -32.25397 | 124.38331 | 41458 ft | 508 kts | 92° |
| 2026-05-05 22:45 | -32.25502 | 124.46679 | 41450 ft | 508 kts | 92° |
| 2026-05-05 22:45 | -32.25600 | 124.55007 | 41450 ft | 510 kts | 92° |
| 2026-05-05 22:46 | -32.25694 | 124.63401 | 41452 ft | 509 kts | 92° |
| 2026-05-05 22:46 | -32.25781 | 124.71727 | 41435 ft | 504 kts | 92° |
| 2026-05-05 22:47 | -32.25864 | 124.80020 | 41446 ft | 506 kts | 92° |
| 2026-05-05 22:47 | -32.25940 | 124.88373 | 41442 ft | 509 kts | 92° |
| 2026-05-05 22:48 | -32.26012 | 124.96678 | 41437 ft | 509 kts | 92° |
| 2026-05-05 22:48 | -32.26078 | 125.05042 | 41440 ft | 509 kts | 92° |
| 2026-05-05 22:49 | -32.26138 | 125.13403 | 41444 ft | 509 kts | 92° |
| 2026-05-05 22:49 | -32.26193 | 125.21771 | 41440 ft | 509 kts | 92° |
| 2026-05-05 22:50 | -32.26243 | 125.30153 | 41441 ft | 510 kts | 92° |
| 2026-05-05 22:50 | -32.26287 | 125.38505 | 41430 ft | 507 kts | 92° |
| 2026-05-05 22:51 | -32.26326 | 125.46824 | 41425 ft | 506 kts | 92° |
| 2026-05-05 22:51 | -32.26962 | 125.55052 | 41426 ft | 505 kts | 99° |
| 2026-05-05 22:52 | -32.27922 | 125.63302 | 41436 ft | 508 kts | 99° |
| 2026-05-05 22:52 | -32.28856 | 125.71585 | 41439 ft | 508 kts | 99° |
| 2026-05-05 22:53 | -32.29793 | 125.79816 | 41435 ft | 509 kts | 99° |
| 2026-05-05 22:53 | -32.30723 | 125.88111 | 41428 ft | 509 kts | 99° |
| 2026-05-05 22:54 | -32.31647 | 125.96361 | 41419 ft | 505 kts | 99° |
| 2026-05-05 22:54 | -32.32561 | 126.04585 | 41415 ft | 503 kts | 99° |
| 2026-05-05 22:55 | -32.33470 | 126.12807 | 41411 ft | 505 kts | 99° |
| 2026-05-05 22:55 | -32.34375 | 126.21041 | 41410 ft | 506 kts | 99° |
| 2026-05-05 22:56 | -32.35278 | 126.29316 | 41415 ft | 508 kts | 99° |
| 2026-05-05 22:56 | -32.36178 | 126.37612 | 41420 ft | 509 kts | 99° |
| 2026-05-05 22:57 | -32.37063 | 126.45821 | 41416 ft | 504 kts | 99° |
| 2026-05-05 22:57 | -32.37944 | 126.54041 | 41411 ft | 504 kts | 99° |
| 2026-05-05 22:58 | -32.38824 | 126.62306 | 41414 ft | 508 kts | 99° |
| 2026-05-05 22:58 | -32.39703 | 126.70618 | 41418 ft | 508 kts | 99° |
| 2026-05-05 22:59 | -32.40577 | 126.78926 | 41420 ft | 509 kts | 98° |
| 2026-05-05 22:59 | -32.41446 | 126.87253 | 41421 ft | 510 kts | 98° |
| 2026-05-05 23:00 | -32.42740 | 126.99744 | 41418 ft | 509 kts | 98° |
| 2026-05-05 23:00 | -32.43596 | 127.08073 | 41413 ft | 510 kts | 98° |
| 2026-05-05 23:01 | -32.44448 | 127.16416 | 41411 ft | 511 kts | 98° |
| 2026-05-05 23:01 | -32.45290 | 127.24721 | 41411 ft | 511 kts | 98° |
| 2026-05-05 23:02 | -32.46135 | 127.33109 | 41418 ft | 513 kts | 98° |
| 2026-05-05 23:02 | -32.46971 | 127.41477 | 41406 ft | 509 kts | 98° |
| 2026-05-05 23:03 | -32.47799 | 127.49802 | 41393 ft | 508 kts | 98° |
| 2026-05-05 23:03 | -32.48616 | 127.58083 | 41394 ft | 511 kts | 98° |
| 2026-05-05 23:04 | -32.49438 | 127.66463 | 41395 ft | 512 kts | 98° |
| 2026-05-05 23:04 | -32.50254 | 127.74854 | 41397 ft | 512 kts | 98° |
| 2026-05-05 23:05 | -32.51066 | 127.83256 | 41409 ft | 514 kts | 98° |
| 2026-05-05 23:05 | -32.51736 | 127.90229 | 41404 ft | 509 kts | 98° |
| 2026-05-05 23:06 | -32.52531 | 127.98557 | 41390 ft | 509 kts | 98° |
| 2026-05-05 23:06 | -32.53321 | 128.06935 | 41393 ft | 512 kts | 97° |
| 2026-05-05 23:07 | -32.54104 | 128.15329 | 41390 ft | 513 kts | 97° |
| 2026-05-05 23:07 | -32.54885 | 128.23744 | 41387 ft | 514 kts | 97° |
| 2026-05-05 23:08 | -32.55661 | 128.32178 | 41395 ft | 515 kts | 97° |
| 2026-05-05 23:08 | -32.56424 | 128.40515 | 41388 ft | 510 kts | 97° |
| 2026-05-05 23:09 | -32.57181 | 128.48863 | 41385 ft | 509 kts | 97° |
| 2026-05-05 23:09 | -32.57934 | 128.57222 | 41384 ft | 510 kts | 97° |
| 2026-05-05 23:10 | -32.58682 | 128.65591 | 41389 ft | 510 kts | 97° |
| 2026-05-05 23:10 | -32.59427 | 128.73988 | 41386 ft | 513 kts | 97° |
| 2026-05-05 23:11 | -32.60169 | 128.82423 | 41395 ft | 512 kts | 97° |
| 2026-05-05 23:11 | -32.60896 | 128.90737 | 41386 ft | 509 kts | 97° |
| 2026-05-05 23:12 | -32.61623 | 128.99128 | 41385 ft | 513 kts | 97° |
| 2026-05-05 23:12 | -32.62348 | 129.07557 | 41389 ft | 514 kts | 97° |
| 2026-05-05 23:13 | -32.63067 | 129.15991 | 41392 ft | 514 kts | 97° |
| 2026-05-05 23:13 | -32.63783 | 129.24445 | 41396 ft | 514 kts | 97° |
| 2026-05-05 23:14 | -32.64486 | 129.32821 | 41392 ft | 512 kts | 97° |
| 2026-05-05 23:14 | -32.65186 | 129.41229 | 41385 ft | 512 kts | 97° |
| 2026-05-05 23:15 | -32.65881 | 129.49643 | 41381 ft | 513 kts | 96° |
| 2026-05-05 23:15 | -32.66572 | 129.58084 | 41378 ft | 515 kts | 96° |
| 2026-05-05 23:16 | -32.67260 | 129.66557 | 41384 ft | 517 kts | 96° |
| 2026-05-05 23:16 | -32.67943 | 129.75040 | 41383 ft | 513 kts | 96° |
| 2026-05-05 23:17 | -32.68615 | 129.83449 | 41368 ft | 511 kts | 96° |
| 2026-05-05 23:17 | -32.69283 | 129.91878 | 41373 ft | 514 kts | 96° |
| 2026-05-05 23:18 | -32.69947 | 130.00343 | 41375 ft | 515 kts | 96° |
| 2026-05-05 23:18 | -32.70607 | 130.08822 | 41376 ft | 516 kts | 96° |
| 2026-05-05 23:19 | -32.71258 | 130.17264 | 41381 ft | 516 kts | 96° |
| 2026-05-05 23:19 | -32.71906 | 130.25739 | 41378 ft | 513 kts | 96° |
| 2026-05-05 23:20 | -32.72546 | 130.34186 | 41374 ft | 514 kts | 96° |
| 2026-05-05 23:20 | -32.73182 | 130.42663 | 41374 ft | 516 kts | 96° |
| 2026-05-05 23:21 | -32.73816 | 130.51181 | 41371 ft | 518 kts | 96° |
| 2026-05-05 23:21 | -32.74445 | 130.59714 | 41380 ft | 518 kts | 96° |
| 2026-05-05 23:22 | -32.75062 | 130.68165 | 41378 ft | 515 kts | 96° |
| 2026-05-05 23:22 | -32.75674 | 130.76624 | 41370 ft | 513 kts | 96° |
| 2026-05-05 23:23 | -32.76280 | 130.85081 | 41364 ft | 513 kts | 96° |
| 2026-05-05 23:23 | -32.76881 | 130.93545 | 41367 ft | 514 kts | 95° |
| 2026-05-05 23:24 | -32.77478 | 131.02041 | 41383 ft | 517 kts | 95° |
| 2026-05-05 23:24 | -32.78066 | 131.10489 | 41372 ft | 515 kts | 95° |
| 2026-05-05 23:25 | -32.78651 | 131.18971 | 41364 ft | 515 kts | 95° |
| 2026-05-05 23:25 | -32.79233 | 131.27501 | 41365 ft | 518 kts | 95° |
| 2026-05-05 23:26 | -32.79811 | 131.36058 | 41369 ft | 518 kts | 95° |
| 2026-05-05 23:26 | -32.80381 | 131.44583 | 41367 ft | 518 kts | 95° |
| 2026-05-05 23:27 | -32.80943 | 131.53075 | 41369 ft | 518 kts | 95° |
| 2026-05-05 23:27 | -32.81503 | 131.61626 | 41360 ft | 519 kts | 95° |
| 2026-05-05 23:28 | -32.82058 | 131.70191 | 41364 ft | 520 kts | 95° |
| 2026-05-05 23:28 | -32.82608 | 131.78771 | 41359 ft | 520 kts | 95° |
| 2026-05-05 23:29 | -32.83152 | 131.87336 | 41364 ft | 519 kts | 95° |
| 2026-05-05 23:29 | -32.83688 | 131.95882 | 41364 ft | 517 kts | 95° |
| 2026-05-05 23:30 | -32.84217 | 132.04402 | 41351 ft | 517 kts | 95° |
| 2026-05-05 23:30 | -32.84742 | 132.12954 | 41352 ft | 520 kts | 95° |
| 2026-05-05 23:31 | -32.85260 | 132.21489 | 41356 ft | 520 kts | 95° |
| 2026-05-05 23:31 | -32.85775 | 132.30077 | 41354 ft | 518 kts | 94° |
| 2026-05-05 23:32 | -32.86281 | 132.38613 | 41359 ft | 517 kts | 94° |
| 2026-05-05 23:32 | -32.86783 | 132.47141 | 41349 ft | 517 kts | 94° |
| 2026-05-05 23:33 | -32.87278 | 132.55655 | 41353 ft | 519 kts | 94° |
| 2026-05-05 23:33 | -32.87772 | 132.64249 | 41353 ft | 521 kts | 94° |
| 2026-05-05 23:34 | -32.88260 | 132.72867 | 41366 ft | 521 kts | 94° |
| 2026-05-05 23:34 | -32.88742 | 132.81466 | 41353 ft | 519 kts | 94° |
| 2026-05-05 23:35 | -32.89213 | 132.89968 | 41351 ft | 517 kts | 94° |
| 2026-05-05 23:35 | -32.89680 | 132.98515 | 41345 ft | 518 kts | 94° |
| 2026-05-05 23:36 | -32.90142 | 133.07077 | 41342 ft | 519 kts | 94° |
| 2026-05-05 23:36 | -32.90600 | 133.15658 | 41357 ft | 520 kts | 94° |
| 2026-05-05 23:37 | -32.91052 | 133.24251 | 41355 ft | 520 kts | 94° |
| 2026-05-05 23:37 | -32.91498 | 133.32840 | 41354 ft | 521 kts | 94° |
| 2026-05-05 23:38 | -32.91939 | 133.41451 | 41354 ft | 521 kts | 94° |
| 2026-05-05 23:38 | -32.92371 | 133.49998 | 41347 ft | 521 kts | 94° |
| 2026-05-05 23:39 | -32.92799 | 133.58600 | 41351 ft | 521 kts | 94° |
| 2026-05-05 23:39 | -32.93222 | 133.67196 | 41337 ft | 520 kts | 93° |
| 2026-05-05 23:40 | -32.93638 | 133.75787 | 41336 ft | 518 kts | 93° |
| 2026-05-05 23:40 | -32.94048 | 133.84350 | 41336 ft | 518 kts | 93° |
| 2026-05-05 23:41 | -32.94451 | 133.92923 | 41338 ft | 520 kts | 93° |
| 2026-05-05 23:41 | -32.94851 | 134.01531 | 41351 ft | 522 kts | 93° |
| 2026-05-05 23:42 | -32.95246 | 134.10166 | 41352 ft | 521 kts | 93° |
| 2026-05-05 23:42 | -32.95633 | 134.18775 | 41349 ft | 520 kts | 93° |
| 2026-05-05 23:43 | -32.96011 | 134.27300 | 41332 ft | 518 kts | 93° |
| 2026-05-05 23:43 | -32.96385 | 134.35869 | 41348 ft | 518 kts | 93° |
| 2026-05-05 23:44 | -32.96755 | 134.44473 | 41341 ft | 521 kts | 92° |
| 2026-05-05 23:44 | -32.97121 | 134.53114 | 41347 ft | 522 kts | 92° |
| 2026-05-05 23:45 | -32.97480 | 134.61753 | 41342 ft | 521 kts | 92° |
| 2026-05-05 23:45 | -32.97832 | 134.70363 | 41339 ft | 520 kts | 92° |
| 2026-05-05 23:46 | -32.98178 | 134.78971 | 41349 ft | 520 kts | 92° |
| 2026-05-05 23:46 | -32.98518 | 134.87566 | 41346 ft | 519 kts | 92° |
| 2026-05-05 23:47 | -32.98849 | 134.96087 | 41344 ft | 518 kts | 92° |
| 2026-05-05 23:47 | -32.99176 | 135.04675 | 41349 ft | 520 kts | 92° |
| 2026-05-05 23:48 | -32.99499 | 135.13299 | 41354 ft | 522 kts | 92° |
| 2026-05-05 23:48 | -32.99808 | 135.21950 | 41354 ft | 523 kts | 92° |
| 2026-05-05 23:49 | -33.00109 | 135.30598 | 41357 ft | 522 kts | 92° |
| 2026-05-05 23:49 | -33.00406 | 135.39242 | 41339 ft | 521 kts | 92° |
| 2026-05-05 23:50 | -33.00694 | 135.47864 | 41338 ft | 520 kts | 92° |
| 2026-05-05 23:50 | -33.00976 | 135.56433 | 41338 ft | 520 kts | 92° |
| 2026-05-05 23:51 | -33.01253 | 135.65041 | 41340 ft | 520 kts | 91° |
| 2026-05-05 23:51 | -33.01525 | 135.73676 | 41345 ft | 522 kts | 91° |
| 2026-05-05 23:52 | -33.01791 | 135.82319 | 41342 ft | 523 kts | 91° |
| 2026-05-05 23:52 | -33.02052 | 135.90993 | 41346 ft | 524 kts | 91° |
| 2026-05-05 23:53 | -33.02264 | 135.98189 | 41355 ft | 523 kts | 91° |
| 2026-05-05 23:53 | -33.02553 | 136.08259 | 41351 ft | 521 kts | 91° |
| 2026-05-05 23:54 | -33.02756 | 136.15483 | 41347 ft | 520 kts | 91° |
| 2026-05-05 23:54 | -33.02991 | 136.24043 | 41348 ft | 521 kts | 91° |
| 2026-05-05 23:55 | -33.03222 | 136.32680 | 41339 ft | 522 kts | 91° |
| 2026-05-05 23:55 | -33.03448 | 136.41332 | 41344 ft | 522 kts | 91° |
| 2026-05-05 23:56 | -33.03667 | 136.49979 | 41344 ft | 522 kts | 91° |
| 2026-05-05 23:56 | -33.03881 | 136.58641 | 41354 ft | 523 kts | 91° |
| 2026-05-05 23:57 | -33.04089 | 136.67311 | 41350 ft | 524 kts | 91° |
| 2026-05-05 23:57 | -33.04292 | 136.75995 | 41335 ft | 524 kts | 90° |
| 2026-05-05 23:58 | -33.04487 | 136.84620 | 41335 ft | 523 kts | 90° |
| 2026-05-05 23:58 | -33.04677 | 136.93292 | 41333 ft | 523 kts | 90° |
| 2026-05-05 23:59 | -33.04860 | 137.01957 | 41335 ft | 523 kts | 90° |
| 2026-05-05 23:59 | -33.05038 | 137.10623 | 41335 ft | 523 kts | 90° |
| 2026-05-06 00:00 | -33.05211 | 137.19310 | 41333 ft | 523 kts | 90° |
| 2026-05-06 00:00 | -33.05377 | 137.27972 | 41335 ft | 523 kts | 90° |
| 2026-05-06 00:01 | -33.05537 | 137.36653 | 41337 ft | 523 kts | 90° |
| 2026-05-06 00:01 | -33.05690 | 137.45285 | 41337 ft | 524 kts | 90° |
| 2026-05-06 00:02 | -33.06093 | 137.53960 | 41363 ft | 524 kts | 102° |
| 2026-05-06 00:02 | -33.07652 | 137.62485 | 41336 ft | 525 kts | 102° |
| 2026-05-06 00:03 | -33.09196 | 137.70948 | 41337 ft | 525 kts | 102° |
| 2026-05-06 00:03 | -33.10735 | 137.79458 | 41338 ft | 525 kts | 102° |
| 2026-05-06 00:04 | -33.12275 | 137.87959 | 41325 ft | 525 kts | 102° |
| 2026-05-06 00:04 | -33.13803 | 137.96478 | 41322 ft | 524 kts | 102° |
| 2026-05-06 00:05 | -33.16092 | 138.09264 | 41322 ft | 523 kts | 101° |
| 2026-05-06 00:06 | -33.17601 | 138.17738 | 41324 ft | 523 kts | 101° |
| 2026-05-06 00:06 | -33.19107 | 138.26238 | 41323 ft | 523 kts | 101° |
| 2026-05-06 00:07 | -33.20610 | 138.34752 | 41325 ft | 524 kts | 101° |
| 2026-05-06 00:07 | -33.22101 | 138.43231 | 41328 ft | 525 kts | 101° |
| 2026-05-06 00:08 | -33.23598 | 138.51784 | 41331 ft | 527 kts | 101° |
| 2026-05-06 00:08 | -33.25092 | 138.60355 | 41336 ft | 528 kts | 101° |
| 2026-05-06 00:09 | -33.26582 | 138.68944 | 41331 ft | 527 kts | 101° |
| 2026-05-06 00:09 | -33.28062 | 138.77507 | 41317 ft | 525 kts | 101° |
| 2026-05-06 00:10 | -33.29530 | 138.86038 | 41311 ft | 523 kts | 101° |
| 2026-05-06 00:10 | -33.30993 | 138.94577 | 41312 ft | 525 kts | 101° |
| 2026-05-06 00:11 | -33.32445 | 139.03089 | 41314 ft | 527 kts | 101° |
| 2026-05-06 00:11 | -33.33904 | 139.11681 | 41318 ft | 527 kts | 101° |
| 2026-05-06 00:12 | -33.35360 | 139.20292 | 41319 ft | 526 kts | 101° |
| 2026-05-06 00:12 | -33.36798 | 139.28836 | 41311 ft | 526 kts | 101° |
| 2026-05-06 00:13 | -33.38234 | 139.37403 | 41307 ft | 525 kts | 101° |
| 2026-05-06 00:13 | -33.39644 | 139.45983 | 41305 ft | 524 kts | 99° |
| 2026-05-06 00:14 | -33.40959 | 139.54564 | 41308 ft | 524 kts | 100° |
| 2026-05-06 00:14 | -33.42319 | 139.63123 | 41304 ft | 523 kts | 99° |
| 2026-05-06 00:15 | -33.43644 | 139.71699 | 41305 ft | 525 kts | 99° |
| 2026-05-06 00:15 | -33.44975 | 139.80253 | 41310 ft | 527 kts | 99° |
| 2026-05-06 00:16 | -33.46307 | 139.88899 | 41312 ft | 528 kts | 99° |
| 2026-05-06 00:16 | -33.47633 | 139.97527 | 41313 ft | 526 kts | 99° |